Time;durP1;ratioP1;P1;durP2;ratioP2;P2;SDS_P1;SDS_P2;PMS_P1;PMS_P2;Temp;Humidity;BMP_temperature;BMP_pressure;BME280_temperature;BME280_humidity;BME280_pressure;Samples;Min_cycle;Max_cycle;Signal;HPM_P1;HPM_P2
2022/07/04 00:03:30;;;;;;;1.73;0.98;;;17.80;99.90;;;;;;12439058;28;20049;-38
2022/07/04 00:09:41;;;;;;;3.70;1.45;;;17.50;99.90;;;;;;12448220;28;20057;-40
2022/07/04 00:15:52;;;;;;;2.60;1.67;;;17.30;99.90;;;;;;12449637;28;20053;-38
2022/07/04 00:22:02;;;;;;;2.47;1.42;;;17.30;99.90;;;;;;12496647;28;20417;-38
2022/07/04 00:28:13;;;;;;;2.53;1.48;;;17.40;99.90;;;;;;12469493;28;20053;-39
2022/07/04 00:34:24;;;;;;;2.42;1.45;;;17.50;99.90;;;;;;12487544;28;20449;-35
2022/07/04 00:40:30;;;;;;;3.58;1.58;;;17.50;99.90;;;;;;12472483;28;20505;-35
2022/07/04 00:46:44;;;;;;;3.65;1.60;;;17.40;99.90;;;;;;12509953;28;20136;-38
2022/07/04 00:52:54;;;;;;;5.55;2.05;;;17.40;99.90;;;;;;12496793;28;20114;-35
2022/07/04 00:59:04;;;;;;;2.67;1.80;;;17.40;99.90;;;;;;12501974;28;20045;-35
2022/07/04 01:05:14;;;;;;;5.72;2.15;;;17.40;99.90;;;;;;12491346;28;20049;-38
2022/07/04 01:11:25;;;;;;;2.47;1.58;;;17.30;99.90;;;;;;12493890;28;20057;-35
2022/07/04 01:17:35;;;;;;;3.53;1.60;;;17.20;99.90;;;;;;12508519;28;20077;-35
2022/07/04 01:23:48;;;;;;;3.33;1.70;;;17.20;99.90;;;;;;12498826;28;20189;-35
2022/07/04 01:29:56;;;;;;;3.22;1.73;;;17.20;99.90;;;;;;12482609;28;20110;-35
2022/07/04 01:36:06;;;;;;;4.70;1.80;;;17.10;99.90;;;;;;12494503;28;20065;-38
2022/07/04 01:42:16;;;;;;;3.03;1.70;;;17.00;99.90;;;;;;12495689;28;20045;-35
2022/07/04 01:48:28;;;;;;;5.22;1.92;;;16.90;99.90;;;;;;12500658;28;20077;-38
2022/07/04 01:54:40;;;;;;;4.38;1.50;;;16.90;99.90;;;;;;12485416;28;20096;-35
2022/07/04 02:07:12;;;;;;;3.53;1.50;;;16.80;99.90;;;;;;12494469;28;20069;-38
2022/07/04 02:13:20;;;;;;;4.72;2.20;;;16.70;99.90;;;;;;12486167;28;20339;-35
2022/07/04 02:19:27;;;;;;;4.43;2.58;;;16.60;99.90;;;;;;12483462;28;20136;-38
2022/07/04 02:25:38;;;;;;;3.15;2.03;;;16.70;99.90;;;;;;12485443;28;20038;-38
2022/07/04 02:31:46;;;;;;;4.55;2.67;;;16.70;99.90;;;;;;12481690;28;20053;-40
2022/07/04 02:37:54;;;;;;;5.53;2.40;;;16.70;99.90;;;;;;12466500;28;20109;-35
2022/07/04 02:44:07;;;;;;;3.40;2.20;;;16.60;99.90;;;;;;12487999;28;20506;-35
2022/07/04 02:50:25;;;;;;;3.42;2.20;;;16.50;99.90;;;;;;12495191;28;20054;-38
2022/07/04 02:56:32;;;;;;;4.40;2.38;;;16.50;99.90;;;;;;12486598;28;20404;-38
2022/07/04 03:02:48;;;;;;;5.72;2.95;;;16.50;99.90;;;;;;12490076;28;20037;-37
2022/07/04 03:08:53;;;;;;;4.30;3.13;;;16.50;99.90;;;;;;12503155;28;20056;-38
2022/07/04 03:15:06;;;;;;;4.15;2.63;;;16.40;99.90;;;;;;12498027;28;20142;-38
2022/07/04 03:21:16;;;;;;;4.20;2.50;;;16.40;99.90;;;;;;12504071;28;20045;-38
2022/07/04 03:27:27;;;;;;;4.78;2.88;;;16.40;99.90;;;;;;12492076;28;20045;-38
2022/07/04 03:33:31;;;;;;;5.60;3.08;;;16.30;99.90;;;;;;12492434;28;20168;-38
2022/07/04 03:39:33;;;;;;;4.43;2.75;;;16.30;99.90;;;;;;12487200;28;20444;-39
2022/07/04 03:45:35;;;;;;;5.00;3.05;;;16.20;99.90;;;;;;12475053;28;20412;-38
2022/07/04 03:51:37;;;;;;;5.47;3.42;;;16.20;99.90;;;;;;12487029;28;20469;-35
2022/07/04 03:57:39;;;;;;;6.30;3.63;;;16.20;99.90;;;;;;12474745;28;20454;-38
2022/07/04 04:10:01;;;;;;;5.82;4.07;;;16.10;99.90;;;;;;12481521;28;20053;-36
2022/07/04 04:16:03;;;;;;;4.85;4.00;;;16.10;99.90;;;;;;12478130;28;20045;-39
2022/07/04 04:22:05;;;;;;;6.00;3.92;;;16.20;99.90;;;;;;12484108;28;20038;-38
2022/07/04 04:28:07;;;;;;;7.15;3.83;;;16.20;99.90;;;;;;12483252;28;20083;-38
2022/07/04 04:34:09;;;;;;;6.70;3.60;;;16.20;99.90;;;;;;12461539;28;20180;-40
2022/07/04 04:40:11;;;;;;;6.35;4.20;;;16.20;99.90;;;;;;12489683;28;20094;-35
2022/07/04 04:46:14;;;;;;;7.32;3.85;;;16.10;99.90;;;;;;12484633;28;20513;-35
2022/07/04 04:52:17;;;;;;;6.20;3.83;;;16.20;99.90;;;;;;12484484;28;20136;-35
2022/07/04 04:58:20;;;;;;;5.65;3.97;;;16.20;99.90;;;;;;12493397;28;20538;-35
2022/07/04 05:04:22;;;;;;;8.03;4.63;;;16.20;99.90;;;;;;12494440;28;20087;-35
2022/07/04 05:10:24;;;;;;;6.30;4.68;;;16.20;99.90;;;;;;12496499;28;20045;-38
2022/07/04 05:16:26;;;;;;;5.30;4.07;;;16.10;99.90;;;;;;12494428;28;20097;-35
2022/07/04 05:22:28;;;;;;;6.88;4.70;;;16.10;99.90;;;;;;12486187;28;20176;-38
2022/07/04 05:28:30;;;;;;;8.05;5.40;;;16.30;99.90;;;;;;12502780;28;20474;-35
2022/07/04 05:34:32;;;;;;;7.28;4.85;;;16.30;99.90;;;;;;12489712;28;20045;-38
2022/07/04 05:40:34;;;;;;;7.90;4.50;;;16.40;99.90;;;;;;12476392;28;20128;-35
2022/07/04 05:46:36;;;;;;;7.90;4.28;;;16.30;99.90;;;;;;12484474;28;20041;-38
2022/07/04 05:52:38;;;;;;;6.93;4.03;;;16.40;99.90;;;;;;12487759;28;20128;-35
2022/07/04 05:58:40;;;;;;;6.07;3.63;;;16.50;99.90;;;;;;12464820;28;20094;-38
2022/07/04 06:04:43;;;;;;;6.30;3.85;;;16.50;99.90;;;;;;12483925;28;20034;-37
2022/07/04 06:10:46;;;;;;;7.50;4.68;;;16.60;99.90;;;;;;12478795;28;20518;-35
2022/07/04 06:16:48;;;;;;;7.82;4.15;;;16.60;99.90;;;;;;12482549;28;20103;-35
2022/07/04 06:22:50;;;;;;;8.18;3.13;;;16.60;99.90;;;;;;12478822;28;20049;-35
2022/07/04 06:28:52;;;;;;;7.25;2.60;;;16.40;99.90;;;;;;12475481;28;20045;-35
2022/07/04 06:41:16;;;;;;;7.88;3.55;;;16.70;99.90;;;;;;12484269;28;20053;-35
2022/07/04 06:47:18;;;;;;;5.40;3.60;;;16.70;99.90;;;;;;12488390;28;20060;-38
2022/07/04 06:53:20;;;;;;;6.60;3.40;;;16.70;99.90;;;;;;12473088;28;20417;-36
2022/07/04 06:59:21;;;;;;;3.60;1.70;;;16.90;99.90;;;;;;12486700;28;20475;-38
2022/07/04 07:05:25;;;;;;;4.70;1.90;;;17.00;99.90;;;;;;12480246;28;20071;-35
2022/07/04 07:11:46;;;;;;;4.90;1.98;;;17.00;99.90;;;;;;12478769;28;20087;-38
2022/07/04 07:17:48;;;;;;;4.40;1.30;;;17.20;99.90;;;;;;12480785;28;20498;-39
2022/07/04 07:23:50;;;;;;;2.72;1.60;;;17.10;99.90;;;;;;12478192;28;20091;-35
2022/07/04 07:29:52;;;;;;;4.47;1.02;;;17.30;99.90;;;;;;12460381;28;20543;-35
2022/07/04 07:35:53;;;;;;;3.53;1.05;;;17.50;99.90;;;;;;12487541;28;20050;-35
2022/07/04 07:41:55;;;;;;;2.50;0.90;;;17.60;99.90;;;;;;12490766;28;20402;-35
2022/07/04 07:47:57;;;;;;;4.97;1.10;;;17.60;99.90;;;;;;12468434;28;20046;-35
2022/07/04 07:53:59;;;;;;;2.25;0.80;;;17.70;99.90;;;;;;12470087;28;20107;-38
2022/07/04 08:00:17;;;;;;;5.10;0.75;;;17.90;99.90;;;;;;12466302;28;20461;-38
2022/07/04 08:06:40;;;;;;;1.00;0.52;;;17.90;99.90;;;;;;12474948;28;20042;-38
2022/07/04 08:12:41;;;;;;;2.50;0.80;;;18.00;99.90;;;;;;12468238;28;20072;-35
2022/07/04 08:18:44;;;;;;;2.25;1.00;;;18.10;99.90;;;;;;12464285;28;21047;-35
2022/07/04 08:24:46;;;;;;;3.33;0.70;;;18.10;99.90;;;;;;12472891;28;20167;-39
2022/07/04 08:30:47;;;;;;;4.13;0.65;;;18.10;99.90;;;;;;12471129;28;20079;-38
2022/07/04 08:36:49;;;;;;;2.20;0.70;;;18.00;99.90;;;;;;12478425;28;20072;-38
2022/07/04 08:42:52;;;;;;;5.60;0.90;;;18.30;99.90;;;;;;12472139;28;20076;-36
2022/07/04 08:48:58;;;;;;;2.00;0.60;;;18.40;99.90;;;;;;12471228;28;20041;-38
2022/07/04 09:01:22;;;;;;;2.17;0.57;;;18.90;99.90;;;;;;12472426;28;20045;-39
2022/07/04 09:07:24;;;;;;;1.75;0.60;;;19.40;99.90;;;;;;12477216;28;20090;-39
2022/07/04 09:13:26;;;;;;;1.85;0.57;;;19.40;99.90;;;;;;12482088;28;20383;-35
2022/07/04 09:19:27;;;;;;;5.35;0.90;;;19.40;99.90;;;;;;12472572;28;20057;-35
2022/07/04 09:25:29;;;;;;;2.83;0.90;;;19.50;99.90;;;;;;12476603;28;20103;-35
2022/07/04 09:31:31;;;;;;;2.47;0.80;;;19.60;99.90;;;;;;12482237;28;20049;-35
2022/07/04 09:37:35;;;;;;;2.67;0.60;;;19.80;99.90;;;;;;12484563;28;20442;-35
2022/07/04 09:43:57;;;;;;;3.75;0.75;;;20.00;99.90;;;;;;12470435;28;20050;-40
2022/07/04 09:50:00;;;;;;;4.43;0.75;;;20.10;99.90;;;;;;12463834;28;20061;-38
2022/07/04 09:56:02;;;;;;;3.27;0.67;;;20.20;99.90;;;;;;12469950;28;20373;-35
2022/07/04 10:02:12;;;;;;;3.38;0.63;;;20.20;99.90;;;;;;12467466;28;20420;-39
2022/07/04 10:08:14;;;;;;;3.17;0.88;;;20.00;99.90;;;;;;12465493;28;20053;-38
2022/07/04 10:14:16;;;;;;;2.22;0.68;;;20.00;99.90;;;;;;12459943;28;20061;-35
2022/07/04 10:20:18;;;;;;;4.82;0.70;;;20.20;99.90;;;;;;12465471;28;20132;-38
2022/07/04 10:26:22;;;;;;;7.80;1.13;;;20.40;99.90;;;;;;12460779;28;20088;-39
2022/07/04 10:32:26;;;;;;;2.60;0.55;;;20.60;99.90;;;;;;12484086;28;20133;-35
2022/07/04 10:38:28;;;;;;;;;;;21.00;99.90;;;;;;12480154;28;20095;-35
2022/07/04 10:44:37;;;;;;;2.08;0.68;;;21.30;99.90;;;;;;12475251;28;19987;-38
2022/07/04 10:50:39;;;;;;;1.85;0.60;;;21.40;99.90;;;;;;12468711;28;20449;-39
2022/07/04 10:56:43;;;;;;;2.42;0.60;;;21.70;99.90;;;;;;12476840;28;20057;-35
2022/07/04 11:02:45;;;;;;;2.25;0.60;;;22.00;99.90;;;;;;12481154;28;20638;-36
2022/07/04 11:09:15;;;;;;;1.83;0.57;;;21.30;99.90;;;;;;12464669;28;20148;-38
2022/07/04 11:15:18;;;;;;;3.08;0.70;;;21.50;99.90;;;;;;12464737;28;20138;-36
2022/07/04 11:21:21;;;;;;;1.45;0.65;;;21.90;99.90;;;;;;12481181;28;20057;-38
2022/07/04 11:27:23;;;;;;;2.13;0.60;;;22.30;99.90;;;;;;12474317;28;20447;-35
2022/07/04 11:33:27;;;;;;;6.15;1.17;;;22.40;99.90;;;;;;12476868;28;20145;-35
2022/07/04 11:39:29;;;;;;;3.58;0.63;;;22.30;99.90;;;;;;12479182;28;20049;-35
2022/07/04 11:45:31;;;;;;;1.77;0.65;;;22.70;99.90;;;;;;12467271;28;20184;-35
2022/07/04 11:51:33;;;;;;;2.63;0.70;;;22.40;99.90;;;;;;12465345;28;20501;-39
2022/07/04 11:57:40;;;;;;;4.65;0.85;;;21.60;99.90;;;;;;12476595;28;20102;-38
2022/07/04 12:03:41;;;;;;;1.40;0.60;;;21.40;99.90;;;;;;12468858;28;20115;-39
2022/07/04 12:09:45;;;;;;;1.55;0.55;;;22.10;99.90;;;;;;12484803;28;20099;-40
2022/07/04 12:15:56;;;;;;;1.85;0.57;;;21.90;99.90;;;;;;12483144;28;20091;-35
2022/07/04 12:21:58;;;;;;;1.50;0.60;;;21.50;99.90;;;;;;12482021;28;20049;-36
2022/07/04 12:28:07;;;;;;;2.13;0.85;;;21.70;99.90;;;;;;12467970;28;20137;-38
2022/07/04 12:34:17;;;;;;;2.67;0.52;;;21.50;99.90;;;;;;12467541;28;20187;-40
2022/07/04 12:40:19;;;;;;;1.65;0.57;;;21.70;99.90;;;;;;12486192;28;20128;-35
2022/07/04 12:46:23;;;;;;;2.25;0.50;;;21.60;99.90;;;;;;12485120;28;20489;-35
2022/07/04 12:52:27;;;;;;;2.15;0.55;;;21.60;99.90;;;;;;12464397;28;20410;-38
2022/07/04 12:58:29;;;;;;;3.38;0.70;;;21.50;99.90;;;;;;12472331;28;20077;-35
2022/07/04 13:04:32;;;;;;;3.03;0.88;;;22.00;99.90;;;;;;12470986;28;20045;-38
2022/07/04 13:10:34;;;;;;;3.53;1.02;;;22.00;99.90;;;;;;12484684;28;20046;-39
2022/07/04 13:16:36;;;;;;;2.30;0.60;;;21.80;99.90;;;;;;12457126;28;20184;-38
2022/07/04 13:22:41;;;;;;;3.65;0.60;;;22.20;99.90;;;;;;12472727;28;20056;-35
2022/07/04 13:28:44;;;;;;;4.20;0.70;;;22.60;99.90;;;;;;12466631;28;20045;-39
2022/07/04 13:34:45;;;;;;;2.77;0.60;;;23.10;99.90;;;;;;12481668;28;20041;-39
2022/07/04 13:40:47;;;;;;;2.67;0.70;;;23.60;99.90;;;;;;12483084;28;20088;-39
2022/07/04 13:46:49;;;;;;;3.28;0.73;;;23.70;99.90;;;;;;12471017;28;20451;-41
2022/07/04 13:52:51;;;;;;;4.43;0.60;;;23.70;99.90;;;;;;12473333;28;20190;-38
2022/07/04 13:58:53;;;;;;;2.63;0.50;;;23.40;99.90;;;;;;12481613;28;20443;-39
2022/07/04 14:04:55;;;;;;;2.20;0.80;;;23.40;99.90;;;;;;12478809;28;20045;-40
2022/07/04 14:10:57;;;;;;;2.33;0.60;;;23.50;99.90;;;;;;12471037;28;20065;-39
2022/07/04 14:16:59;;;;;;;1.95;0.63;;;23.70;99.90;;;;;;12470070;28;20056;-40
2022/07/04 14:29:43;;;;;;;3.03;0.77;;;23.50;99.90;;;;;;12474321;28;20152;-40
2022/07/04 14:35:44;;;;;;;3.10;0.70;;;23.30;99.90;;;;;;12473944;28;20049;-40
2022/07/04 14:41:48;;;;;;;5.35;0.75;;;23.30;99.90;;;;;;12468945;28;20404;-39
2022/07/04 14:47:50;;;;;;;2.25;0.70;;;23.50;99.90;;;;;;12460910;28;20553;-40
2022/07/04 14:53:52;;;;;;;2.15;0.75;;;23.80;99.90;;;;;;12468061;28;20099;-39
2022/07/04 14:59:54;;;;;;;2.60;0.80;;;23.90;99.90;;;;;;12473299;28;20045;-35
2022/07/04 15:05:56;;;;;;;2.10;0.70;;;23.60;99.90;;;;;;12483202;28;20128;-39
2022/07/04 15:11:57;;;;;;;2.30;0.70;;;23.10;99.90;;;;;;12478076;28;20548;-39
2022/07/04 15:17:59;;;;;;;2.88;0.75;;;22.70;99.90;;;;;;12483738;28;20535;-35
2022/07/04 15:24:10;;;;;;;1.90;0.68;;;22.70;99.90;;;;;;12478615;28;20045;-35
2022/07/04 15:30:12;;;;;;;3.63;0.93;;;22.90;99.90;;;;;;12472405;28;20091;-37
2022/07/04 15:36:14;;;;;;;2.42;0.80;;;22.90;99.90;;;;;;12489248;28;20187;-38
2022/07/04 15:42:16;;;;;;;2.75;0.85;;;23.00;99.90;;;;;;12480285;28;20406;-36
2022/07/04 15:48:18;;;;;;;3.95;0.80;;;22.80;99.90;;;;;;12475696;28;20042;-36
2022/07/04 15:54:20;;;;;;;4.45;1.08;;;22.70;99.90;;;;;;12476973;28;20456;-36
2022/07/04 16:00:21;;;;;;;4.30;0.80;;;22.50;99.90;;;;;;12475037;28;20203;-38
2022/07/04 16:06:23;;;;;;;7.13;0.98;;;22.30;99.90;;;;;;12490394;28;20045;-36
2022/07/04 16:12:25;;;;;;;2.35;1.10;;;22.50;99.90;;;;;;12478803;28;20439;-39
2022/07/04 16:18:27;;;;;;;2.88;1.00;;;23.00;99.90;;;;;;12470567;28;20050;-39
2022/07/04 16:24:29;;;;;;;2.35;0.80;;;23.30;99.90;;;;;;12473135;28;20440;-40
2022/07/04 16:30:31;;;;;;;2.78;1.20;;;23.60;99.90;;;;;;12474114;28;20079;-39
2022/07/04 16:36:32;;;;;;;2.20;0.80;;;23.50;99.90;;;;;;12485307;28;20144;-35
2022/07/04 16:42:34;;;;;;;6.53;1.90;;;22.80;99.90;;;;;;12469732;28;20124;-35
2022/07/04 16:48:36;;;;;;;3.78;1.00;;;22.60;99.90;;;;;;12475205;28;20041;-39
2022/07/04 16:54:43;;;;;;;2.03;0.80;;;23.00;99.90;;;;;;12476458;28;20473;-39
2022/07/04 17:00:45;;;;;;;3.20;1.20;;;22.80;99.90;;;;;;12472725;28;20050;-35
2022/07/04 17:06:47;;;;;;;4.07;1.05;;;22.70;99.90;;;;;;12477882;28;20053;-35
2022/07/04 17:12:49;;;;;;;4.07;1.05;;;22.40;99.90;;;;;;12481285;28;20042;-38
2022/07/04 17:18:51;;;;;;;4.05;1.20;;;22.70;99.90;;;;;;12481887;28;20136;-39
2022/07/04 17:24:53;;;;;;;3.17;1.20;;;22.70;99.90;;;;;;12481886;28;20128;-38
2022/07/04 17:30:55;;;;;;;4.32;1.00;;;22.60;99.90;;;;;;12482201;28;20498;-35
2022/07/04 17:36:57;;;;;;;3.83;1.40;;;22.50;99.90;;;;;;12486294;28;20045;-39
2022/07/04 17:42:58;;;;;;;4.32;1.38;;;22.80;99.90;;;;;;12471686;28;20049;-35
2022/07/04 17:49:00;;;;;;;4.10;1.50;;;23.30;99.90;;;;;;12489339;28;20049;-36
2022/07/04 17:55:02;;;;;;;2.25;1.13;;;23.40;99.90;;;;;;12464516;28;20114;-35
2022/07/04 18:01:05;;;;;;;3.20;1.23;;;23.50;99.90;;;;;;12470199;28;20072;-39
2022/07/04 18:07:14;;;;;;;3.65;0.90;;;23.70;99.90;;;;;;12474283;28;20088;-39
2022/07/04 18:13:16;;;;;;;4.97;1.10;;;23.70;99.90;;;;;;12459340;28;20042;-39
2022/07/04 18:19:20;;;;;;;3.27;1.00;;;23.40;99.90;;;;;;12480710;28;20041;-39
2022/07/04 18:25:23;;;;;;;1.85;1.00;;;22.90;99.90;;;;;;12461518;28;20843;-39
2022/07/04 18:31:25;;;;;;;4.20;1.25;;;22.60;99.90;;;;;;12464461;28;20420;-40
2022/07/04 18:37:27;;;;;;;4.15;1.08;;;22.40;99.90;;;;;;12478701;28;20105;-40
2022/07/04 18:43:29;;;;;;;4.82;1.20;;;22.10;99.90;;;;;;12456982;28;20034;-36
2022/07/04 18:49:30;;;;;;;3.13;1.00;;;21.80;99.90;;;;;;12468571;28;20132;-39
2022/07/04 18:55:32;;;;;;;7.07;1.40;;;21.50;99.90;;;;;;12474252;28;20054;-39
2022/07/04 19:01:35;;;;;;;3.47;1.17;;;21.50;99.90;;;;;;12480919;28;20076;-39
2022/07/04 19:07:37;;;;;;;3.53;1.10;;;21.40;99.90;;;;;;12468350;28;20451;-38
2022/07/04 19:13:39;;;;;;;3.03;1.13;;;21.40;99.90;;;;;;12464537;28;20099;-39
2022/07/04 19:19:41;;;;;;;4.43;1.02;;;21.30;99.90;;;;;;12468646;28;20563;-39
2022/07/04 19:25:43;;;;;;;2.00;1.00;;;21.20;99.90;;;;;;12460336;28;20041;-36
2022/07/04 19:31:54;;;;;;;2.42;1.02;;;21.00;99.90;;;;;;12480621;28;20060;-38
2022/07/04 19:37:56;;;;;;;3.55;1.20;;;21.10;99.90;;;;;;12478665;28;20049;-39
2022/07/04 19:43:58;;;;;;;4.28;1.05;;;21.00;99.90;;;;;;12473760;28;20103;-38
2022/07/04 19:50:00;;;;;;;5.45;1.30;;;20.90;99.90;;;;;;12474616;28;20103;-35
2022/07/04 19:56:02;;;;;;;4.22;1.02;;;20.70;99.90;;;;;;12478978;28;20057;-35
2022/07/04 20:02:04;;;;;;;2.42;1.00;;;20.70;99.90;;;;;;12489080;28;20041;-38
2022/07/04 20:08:06;;;;;;;3.90;1.42;;;20.70;99.90;;;;;;12487033;28;20179;-38
2022/07/04 20:14:08;;;;;;;3.28;1.10;;;20.60;99.90;;;;;;12478132;28;20432;-35
2022/07/04 20:20:13;;;;;;;3.10;1.02;;;20.40;99.90;;;;;;12491100;28;20045;-39
2022/07/04 20:26:15;;;;;;;7.22;1.20;;;20.10;99.90;;;;;;12487689;28;20124;-35
2022/07/04 20:32:18;;;;;;;6.70;1.13;;;20.00;99.90;;;;;;12486968;28;20034;-35
2022/07/04 20:38:19;;;;;;;3.33;1.08;;;20.00;99.90;;;;;;12486563;28;20095;-38
2022/07/04 20:44:22;;;;;;;5.47;1.10;;;19.80;99.90;;;;;;12474708;28;20041;-38
2022/07/04 20:50:24;;;;;;;2.70;1.08;;;19.80;99.90;;;;;;12467591;28;20053;-39
2022/07/04 20:56:25;;;;;;;1.77;0.90;;;19.80;99.90;;;;;;12470470;28;20088;-39
2022/07/04 21:02:27;;;;;;;2.33;0.90;;;19.80;99.90;;;;;;12482967;28;20110;-37
2022/07/04 21:08:29;;;;;;;2.92;1.05;;;19.60;99.90;;;;;;12479350;28;20099;-35
2022/07/04 21:14:31;;;;;;;3.17;1.10;;;19.60;99.90;;;;;;12477671;28;20558;-38
2022/07/04 21:20:33;;;;;;;5.50;1.20;;;19.60;99.90;;;;;;12479257;28;20050;-35
2022/07/04 21:26:34;;;;;;;3.50;1.10;;;19.60;99.90;;;;;;12474470;28;20180;-38
2022/07/04 21:32:36;;;;;;;4.18;1.00;;;19.50;99.90;;;;;;12474437;28;20049;-39
2022/07/04 21:38:39;;;;;;;4.18;1.00;;;19.40;99.90;;;;;;12480576;28;20037;-35
2022/07/04 21:44:40;;;;;;;3.33;0.90;;;19.30;99.90;;;;;;12486535;28;20163;-40
2022/07/04 21:50:43;;;;;;;3.33;1.20;;;19.20;99.90;;;;;;12473601;28;20070;-35
2022/07/04 21:56:44;;;;;;;1.42;0.80;;;18.90;99.90;;;;;;12469824;28;20120;-38
2022/07/04 22:02:46;;;;;;;3.80;0.85;;;18.90;99.90;;;;;;12470802;28;20053;-38
2022/07/04 22:08:48;;;;;;;2.90;1.10;;;18.70;99.90;;;;;;12478370;28;20054;-34
2022/07/04 22:14:50;;;;;;;3.35;1.10;;;18.60;99.90;;;;;;12470806;28;20049;-38
2022/07/04 22:20:57;;;;;;;3.83;1.08;;;18.40;99.90;;;;;;12477324;28;20053;-38
2022/07/04 22:26:59;;;;;;;2.15;0.73;;;18.30;99.90;;;;;;12466788;28;20106;-35
2022/07/04 22:33:01;;;;;;;3.47;1.27;;;18.20;99.90;;;;;;12480445;28;20083;-35
2022/07/04 22:39:03;;;;;;;1.85;1.00;;;18.10;99.90;;;;;;12442997;28;20456;-38
2022/07/04 22:45:05;;;;;;;3.13;0.80;;;18.10;99.90;;;;;;12459551;28;20409;-38
2022/07/04 22:51:14;;;;;;;3.60;1.00;;;18.00;99.90;;;;;;12460959;28;20049;-38
2022/07/04 22:57:23;;;;;;;1.40;0.70;;;17.80;99.90;;;;;;12464622;28;20587;-38
2022/07/04 23:03:25;;;;;;;2.08;0.90;;;17.70;99.90;;;;;;12460467;28;20466;-38
2022/07/04 23:09:27;;;;;;;1.42;0.90;;;17.60;99.90;;;;;;12480757;28;20046;-38
2022/07/04 23:15:29;;;;;;;2.20;0.80;;;17.50;99.90;;;;;;12464492;28;20171;-38
2022/07/04 23:21:31;;;;;;;2.22;0.85;;;17.40;99.90;;;;;;12470287;28;20046;-36
2022/07/04 23:27:32;;;;;;;4.70;1.38;;;17.30;99.90;;;;;;12478619;28;20744;-35
2022/07/04 23:33:34;;;;;;;2.75;0.95;;;17.20;99.90;;;;;;12479795;28;20053;-38
2022/07/04 23:39:36;;;;;;;2.92;0.93;;;17.20;99.90;;;;;;12487239;28;20050;-35
2022/07/04 23:45:38;;;;;;;2.25;0.88;;;17.10;99.90;;;;;;12476940;28;20048;-34
2022/07/04 23:51:39;;;;;;;1.98;0.75;;;17.00;99.90;;;;;;12475819;28;20571;-34
2022/07/04 23:57:41;;;;;;;1.45;0.70;;;16.90;99.90;;;;;;12476242;28;20623;-35
